Latest Weather Observations for Inglewood

IDQ60801

Issued at 6:35 pm EST Friday 28 November 2014 (issued every 30 minutes, with the page automatically refreshed every 10 minutes)

About weather observations | Map of weather stations | Latest weather observations for QLD | Other Formats
Station Details ID: 041097 Name: INGLEWOOD FOREST Lat: -28.34 Lon: 150.94 Height: 379.0 m
Data from the previous 72 hours. | See also: Recent months at Inglewood
Date/Time
EST
Temp
°C
App
Temp
°C
Dew
Point
Rel
Hum
%
Delta-T
°C
Wind Press
QNH
hPa
Press
MSL
hPa
Rain
since 9 am
mm
Dir
 
Spd
km/h
Gust
km/h
Spd
kts
Gust
kts
28/06:30pm - - - - - ENE 17 30 9 16 - - 0.0
28/06:00pm - - - - - NE 20 39 11 21 - - 0.0
28/05:30pm - - - - - ENE 22 41 12 22 - - 0.0
28/05:00pm - - - - - ENE 26 43 14 23 - - 0.0
28/04:55pm - - - - - ENE 28 46 15 25 - - 0.0
28/04:30pm - - - - - ENE 17 28 9 15 - - 0.0
28/04:00pm - - - - - ENE 20 33 11 18 - - 0.0
28/03:30pm - - - - - ENE 17 26 9 14 - - 0.0
28/03:00pm - - - - - NE 15 32 8 17 - - 0.0
28/02:30pm - - - - - ENE 17 28 9 15 - - 0.0
28/02:00pm - - - - - NNE 17 30 9 16 - - 0.0
28/01:30pm - - - - - ENE 13 28 7 15 - - 0.0
28/01:00pm - - - - - NNE 13 20 7 11 - - 0.0
28/12:30pm - - - - - NNE 15 30 8 16 - - 0.0
28/12:00pm - - - - - ENE 19 39 10 21 - - 0.0
28/11:30am - - - - - ENE 19 33 10 18 - - 0.0
28/11:00am - - - - - NE 19 28 10 15 - - 0.0
28/10:30am - - - - - ENE 20 39 11 21 - - 0.0
28/10:00am - - - - - NNE 19 28 10 15 - - 0.0
28/09:30am - - - - - NE 15 26 8 14 - - 0.0
28/09:00am - - - - - NE 20 32 11 17 - - 0.0
28/08:30am - - - - - ENE 13 24 7 13 - - 0.0
28/08:00am - - - - - ENE 17 28 9 15 - - 0.0
28/07:30am - - - - - ENE 15 28 8 15 - - 0.0
28/07:00am - - - - - ENE 15 33 8 18 - - 0.0
28/06:30am - - - - - ENE 11 22 6 12 - - 0.0
28/06:00am - - - - - ENE 13 30 7 16 - - 0.0
28/05:30am - - - - - ENE 13 20 7 11 - - 0.0
28/05:00am - - - - - ENE 13 20 7 11 - - 0.0
28/04:30am - - - - - ENE 9 13 5 7 - - 0.0
28/04:00am - - - - - ENE 9 17 5 9 - - 0.0
28/03:30am - - - - - ENE 13 24 7 13 - - 0.0
28/03:00am - - - - - ENE 17 28 9 15 - - 0.0
28/02:30am - - - - - E 20 32 11 17 - - 0.0
28/02:00am - - - - - E 20 32 11 17 - - 0.0
28/01:30am - - - - - E 19 39 10 21 - - 0.0
28/01:00am - - - - - E 22 39 12 21 - - 0.0
28/12:30am - - - - - E 26 37 14 20 - - 0.0
28/12:00am - - - - - E 24 44 13 24 - - 0.0
 
Date/Time
EST
Temp
°C
App
Temp
°C
Dew
Point
Rel
Hum
%
Delta-T
°C
Wind Press
QNH
hPa
Press
MSL
hPa
Rain
since 9 am
mm
Dir
 
Spd
km/h
Gust
km/h
Spd
kts
Gust
kts
27/11:30pm - - - - - E 19 32 10 17 - - 0.0
27/11:00pm - - - - - E 22 39 12 21 - - 0.0
27/10:30pm - - - - - ENE 26 41 14 22 - - 0.0
27/10:00pm - - - - - E 22 37 12 20 - - 0.0
27/09:30pm - - - - - E 20 32 11 17 - - 0.0
27/09:00pm - - - - - ENE 20 33 11 18 - - 0.0
27/08:30pm - - - - - ENE 22 37 12 20 - - 0.0
27/08:00pm - - - - - ENE 24 46 13 25 - - 0.0
27/07:30pm - - - - - ENE 24 41 13 22 - - 0.0
27/07:00pm - - - - - E 28 50 15 27 - - 0.0
27/06:55pm - - - - - E 28 46 15 25 - - 0.0
27/06:47pm - - - - - ENE 28 37 15 20 - - 0.0
27/06:30pm - - - - - SE 7 11 4 6 - - 0.0
27/06:00pm - - - - - SSW 11 17 6 9 - - 0.0
27/05:30pm - - - - - S 15 20 8 11 - - 0.0
27/05:00pm - - - - - WSW 11 20 6 11 - - 0.0
27/04:30pm - - - - - S 11 22 6 12 - - 0.0
27/04:00pm - - - - - WSW 17 28 9 15 - - 0.0
27/03:30pm - - - - - SSW 13 26 7 14 - - 0.0
27/03:00pm - - - - - SW 11 20 6 11 - - 0.0
27/02:30pm - - - - - WSW 15 24 8 13 - - 0.0
27/02:00pm - - - - - WSW 15 24 8 13 - - 0.0
27/01:30pm - - - - - SW 11 20 6 11 - - 0.0
27/01:00pm - - - - - WSW 15 28 8 15 - - 0.0
27/12:30pm - - - - - SW 13 22 7 12 - - 0.0
27/12:00pm - - - - - SW 13 20 7 11 - - 0.0
27/11:30am - - - - - SW 13 19 7 10 - - 0.0
27/11:00am - - - - - S 9 15 5 8 - - 0.0
27/10:30am - - - - - SW 15 20 8 11 - - 0.0
27/10:00am - - - - - WSW 13 22 7 12 - - 0.0
27/09:30am - - - - - W 13 20 7 11 - - 0.0
27/09:00am - - - - - WNW 11 17 6 9 - - 0.0
27/08:30am - - - - - WNW 11 24 6 13 - - 0.0
27/08:00am - - - - - WNW 11 17 6 9 - - 0.0
27/07:30am - - - - - NNW 9 17 5 9 - - 0.0
27/07:00am - - - - - NNE 11 15 6 8 - - 0.0
27/06:30am - - - - - NE 11 20 6 11 - - 0.0
27/06:00am - - - - - NE 11 20 6 11 - - 0.0
27/05:30am - - - - - NE 9 17 5 9 - - 0.0
27/05:00am - - - - - NE 11 17 6 9 - - 0.0
27/04:30am - - - - - NE 11 17 6 9 - - 0.0
27/04:00am - - - - - NE 11 19 6 10 - - 0.0
27/03:30am - - - - - NE 11 19 6 10 - - 0.0
27/03:00am - - - - - NE 11 17 6 9 - - 0.0
27/02:30am - - - - - NE 9 15 5 8 - - 0.0
27/02:00am - - - - - NE 11 17 6 9 - - 0.0
27/01:30am - - - - - NE 9 17 5 9 - - 0.0
27/01:00am - - - - - NE 11 17 6 9 - - 0.0
27/12:30am - - - - - NE 13 22 7 12 - - 0.0
27/12:00am - - - - - NNE 11 19 6 10 - - 0.0
 
Date/Time
EST
Temp
°C
App
Temp
°C
Dew
Point
Rel
Hum
%
Delta-T
°C
Wind Press
QNH
hPa
Press
MSL
hPa
Rain
since 9 am
mm
Dir
 
Spd
km/h
Gust
km/h
Spd
kts
Gust
kts
26/11:30pm - - - - - NE 9 15 5 8 - - 0.0
26/11:00pm - - - - - NE 11 19 6 10 - - 0.0
26/10:30pm - - - - - NE 9 15 5 8 - - 0.0
26/10:00pm - - - - - NE 13 19 7 10 - - 0.0
26/09:30pm - - - - - NE 11 17 6 9 - - 0.0
26/09:00pm - - - - - W 2 6 1 3 - - 0.0
26/08:30pm - - - - - ENE 7 11 4 6 - - 0.0
26/08:00pm - - - - - NE 9 13 5 7 - - 0.0
26/07:30pm - - - - - NE 7 11 4 6 - - 0.0
26/07:00pm - - - - - N 2 7 1 4 - - 0.0
26/06:30pm - - - - - N 7 13 4 7 - - 0.0
26/06:00pm - - - - - NNE 9 13 5 7 - - 0.0
26/05:30pm - - - - - N 11 17 6 9 - - 0.0
26/05:00pm - - - - - NNE 7 11 4 6 - - 0.0
26/04:30pm - - - - - NNE 9 13 5 7 - - 0.0
26/04:00pm - - - - - NE 13 20 7 11 - - 0.0
26/03:30pm - - - - - NE 11 17 6 9 - - 0.0
26/03:00pm - - - - - NE 11 17 6 9 - - 0.0
26/02:30pm - - - - - N 9 13 5 7 - - 0.0
26/02:00pm - - - - - NNE 9 17 5 9 - - 0.0
26/01:30pm - - - - - NNE 9 15 5 8 - - 0.0
26/01:00pm - - - - - NNE 11 20 6 11 - - 0.0
26/12:30pm - - - - - NNE 9 13 5 7 - - 0.0
26/12:00pm - - - - - NE 13 20 7 11 - - 0.0
26/11:30am - - - - - NE 17 26 9 14 - - 0.0
26/11:00am - - - - - NNE 13 22 7 12 - - 0.0
26/10:30am - - - - - NE 11 17 6 9 - - 0.0
26/10:00am - - - - - NE 11 19 6 10 - - 0.0
26/09:30am - - - - - NE 17 30 9 16 - - 0.0
26/09:00am - - - - - NE 13 20 7 11 - - 0.0
26/08:30am - - - - - NE 15 28 8 15 - - 0.0
26/08:00am - - - - - NE 17 30 9 16 - - 0.0
26/07:30am - - - - - NE 17 24 9 13 - - 0.0
26/07:00am - - - - - NE 11 20 6 11 - - 0.0
26/06:30am - - - - - ENE 11 19 6 10 - - 0.0
26/06:00am - - - - - NE 13 20 7 11 - - 0.0
26/05:30am - - - - - ENE 13 26 7 14 - - 0.0
26/05:00am - - - - - ENE 11 17 6 9 - - 0.0
26/04:30am - - - - - E 7 11 4 6 - - 0.0
26/04:00am - - - - - ENE 13 24 7 13 - - 0.0
26/03:30am - - - - - ENE 13 28 7 15 - - 0.0
26/03:00am - - - - - E 15 22 8 12 - - 0.0
26/02:30am - - - - - E 13 22 7 12 - - 0.0
26/02:00am - - - - - E 17 32 9 17 - - 0.0
26/01:30am - - - - - E 15 24 8 13 - - 0.0
26/01:00am - - - - - ENE 15 24 8 13 - - 0.0
26/12:30am - - - - - ENE 13 24 7 13 - - 0.0
26/12:00am - - - - - ENE 13 24 7 13 - - 0.0
 
Date/Time
EST
Temp
°C
App
Temp
°C
Dew
Point
Rel
Hum
%
Delta-T
°C
Wind Press
QNH
hPa
Press
MSL
hPa
Rain
since 9 am
mm
Dir
 
Spd
km/h
Gust
km/h
Spd
kts
Gust
kts
25/11:30pm - - - - - ENE 11 17 6 9 - - 0.0
25/11:00pm - - - - - ENE 11 17 6 9 - - 0.0
25/10:30pm - - - - - ENE 13 20 7 11 - - 0.0
25/10:00pm - - - - - E 17 32 9 17 - - 0.0
25/09:30pm - - - - - ENE 15 28 8 15 - - 0.0
25/09:00pm - - - - - E 17 28 9 15 - - 0.0
25/08:30pm - - - - - E 20 35 11 19 - - 0.0
25/08:00pm - - - - - SE 13 19 7 10 - - 0.0
25/07:30pm - - - - - SSE 13 19 7 10 - - 0.0
25/07:00pm - - - - - SSE 13 19 7 10 - - 0.0

Other Formats:

Comma delimited format used in spreadsheet applications
http://www.bom.gov.au/fwo/IDQ60801/IDQ60801.95573.axf

JavaScript Object Notation format (JSON) in row-major order
http://www.bom.gov.au/fwo/IDQ60801/IDQ60801.95573.json